sensor_id;sensor_type;location;lat;lon;timestamp;temperature;humidity
21176;DHT22;10746;50.178;8.186;2022-12-18T00:02:15;-8.50;99.90
21176;DHT22;10746;50.178;8.186;2022-12-18T00:04:42;-8.50;99.90
21176;DHT22;10746;50.178;8.186;2022-12-18T00:07:08;-8.50;99.90
21176;DHT22;10746;50.178;8.186;2022-12-18T00:09:35;-8.50;99.90
21176;DHT22;10746;50.178;8.186;2022-12-18T00:12:02;-8.50;99.90
21176;DHT22;10746;50.178;8.186;2022-12-18T00:14:29;-8.60;99.90
21176;DHT22;10746;50.178;8.186;2022-12-18T00:16:57;-8.70;99.90
21176;DHT22;10746;50.178;8.186;2022-12-18T00:19:26;-8.60;99.90
21176;DHT22;10746;50.178;8.186;2022-12-18T00:21:53;-8.50;99.90
21176;DHT22;10746;50.178;8.186;2022-12-18T00:24:20;-8.40;99.90
21176;DHT22;10746;50.178;8.186;2022-12-18T00:26:46;-8.30;99.90
21176;DHT22;10746;50.178;8.186;2022-12-18T00:29:13;-8.20;99.90
21176;DHT22;10746;50.178;8.186;2022-12-18T00:31:41;-8.10;99.90
21176;DHT22;10746;50.178;8.186;2022-12-18T00:34:11;-8.10;99.90
21176;DHT22;10746;50.178;8.186;2022-12-18T00:36:39;-8.00;99.90
21176;DHT22;10746;50.178;8.186;2022-12-18T00:39:06;-7.90;99.90
21176;DHT22;10746;50.178;8.186;2022-12-18T00:41:33;-7.70;99.90
21176;DHT22;10746;50.178;8.186;2022-12-18T00:44:18;-7.40;99.90
21176;DHT22;10746;50.178;8.186;2022-12-18T00:46:46;-7.20;99.90
21176;DHT22;10746;50.178;8.186;2022-12-18T00:49:15;-7.20;99.90
21176;DHT22;10746;50.178;8.186;2022-12-18T00:51:41;-7.00;99.90
21176;DHT22;10746;50.178;8.186;2022-12-18T00:54:08;-7.10;99.90
21176;DHT22;10746;50.178;8.186;2022-12-18T00:56:36;-7.00;99.90
21176;DHT22;10746;50.178;8.186;2022-12-18T00:59:03;-7.00;99.90
21176;DHT22;10746;50.178;8.186;2022-12-18T01:01:31;-6.90;99.90
21176;DHT22;10746;50.178;8.186;2022-12-18T01:03:58;-7.10;99.90
21176;DHT22;10746;50.178;8.186;2022-12-18T01:06:26;-7.20;99.90
21176;DHT22;10746;50.178;8.186;2022-12-18T01:08:54;-7.40;99.90
21176;DHT22;10746;50.178;8.186;2022-12-18T01:11:22;-7.30;99.90
21176;DHT22;10746;50.178;8.186;2022-12-18T01:13:49;-7.10;99.90
21176;DHT22;10746;50.178;8.186;2022-12-18T01:16:17;-7.20;99.90
21176;DHT22;10746;50.178;8.186;2022-12-18T01:18:44;-7.40;99.90
21176;DHT22;10746;50.178;8.186;2022-12-18T01:21:16;-7.40;99.90
21176;DHT22;10746;50.178;8.186;2022-12-18T01:23:44;-7.10;99.90
21176;DHT22;10746;50.178;8.186;2022-12-18T01:26:13;-7.00;99.90
21176;DHT22;10746;50.178;8.186;2022-12-18T01:28:40;-6.70;99.90
21176;DHT22;10746;50.178;8.186;2022-12-18T01:31:16;-6.50;99.90
21176;DHT22;10746;50.178;8.186;2022-12-18T01:33:44;-6.40;99.90
21176;DHT22;10746;50.178;8.186;2022-12-18T01:36:15;-6.30;99.90
21176;DHT22;10746;50.178;8.186;2022-12-18T01:38:44;-6.20;99.90
21176;DHT22;10746;50.178;8.186;2022-12-18T01:41:11;-6.10;99.90
21176;DHT22;10746;50.178;8.186;2022-12-18T01:43:42;-6.00;99.90
21176;DHT22;10746;50.178;8.186;2022-12-18T01:46:09;-6.10;99.90
21176;DHT22;10746;50.178;8.186;2022-12-18T01:48:36;-6.00;99.90
21176;DHT22;10746;50.178;8.186;2022-12-18T01:51:04;-6.10;99.90
21176;DHT22;10746;50.178;8.186;2022-12-18T01:53:32;-6.10;99.90
21176;DHT22;10746;50.178;8.186;2022-12-18T01:56:00;-6.30;99.90
21176;DHT22;10746;50.178;8.186;2022-12-18T01:58:30;-6.50;99.90
21176;DHT22;10746;50.178;8.186;2022-12-18T02:00:59;-6.60;99.90
21176;DHT22;10746;50.178;8.186;2022-12-18T02:03:25;-6.70;99.90
21176;DHT22;10746;50.178;8.186;2022-12-18T02:05:58;-6.80;99.90
21176;DHT22;10746;50.178;8.186;2022-12-18T02:08:32;-7.00;99.90
21176;DHT22;10746;50.178;8.186;2022-12-18T02:11:06;-7.20;99.90
21176;DHT22;10746;50.178;8.186;2022-12-18T02:13:41;-7.50;99.90
21176;DHT22;10746;50.178;8.186;2022-12-18T02:16:16;-7.80;99.90
21176;DHT22;10746;50.178;8.186;2022-12-18T02:18:48;-7.90;99.90
21176;DHT22;10746;50.178;8.186;2022-12-18T02:21:24;-8.00;99.90
21176;DHT22;10746;50.178;8.186;2022-12-18T02:23:56;-8.00;99.90
21176;DHT22;10746;50.178;8.186;2022-12-18T02:26:34;-8.00;99.90
21176;DHT22;10746;50.178;8.186;2022-12-18T02:29:05;-8.10;99.90
21176;DHT22;10746;50.178;8.186;2022-12-18T02:31:40;-8.00;99.90
21176;DHT22;10746;50.178;8.186;2022-12-18T02:34:09;-7.80;99.90
21176;DHT22;10746;50.178;8.186;2022-12-18T02:36:39;-7.60;99.90
21176;DHT22;10746;50.178;8.186;2022-12-18T02:39:09;-7.30;99.90
21176;DHT22;10746;50.178;8.186;2022-12-18T02:41:38;-7.10;99.90
21176;DHT22;10746;50.178;8.186;2022-12-18T02:44:08;-7.00;99.90
21176;DHT22;10746;50.178;8.186;2022-12-18T02:46:37;-6.70;99.90
21176;DHT22;10746;50.178;8.186;2022-12-18T02:49:13;-6.50;99.90
21176;DHT22;10746;50.178;8.186;2022-12-18T02:51:51;-6.60;99.90
21176;DHT22;10746;50.178;8.186;2022-12-18T02:54:26;-6.30;99.90
21176;DHT22;10746;50.178;8.186;2022-12-18T02:57:09;-6.40;99.90
21176;DHT22;10746;50.178;8.186;2022-12-18T02:59:42;-6.40;99.90
21176;DHT22;10746;50.178;8.186;2022-12-18T03:02:23;-6.50;99.90
21176;DHT22;10746;50.178;8.186;2022-12-18T03:04:57;-6.40;99.90
21176;DHT22;10746;50.178;8.186;2022-12-18T03:07:29;-6.40;99.90
21176;DHT22;10746;50.178;8.186;2022-12-18T03:10:00;-6.40;99.90
21176;DHT22;10746;50.178;8.186;2022-12-18T03:12:31;-6.40;99.90
21176;DHT22;10746;50.178;8.186;2022-12-18T03:15:02;-6.40;99.90
21176;DHT22;10746;50.178;8.186;2022-12-18T03:17:32;-6.20;99.90
21176;DHT22;10746;50.178;8.186;2022-12-18T03:20:04;-6.10;99.90
21176;DHT22;10746;50.178;8.186;2022-12-18T03:22:33;-6.10;99.90
21176;DHT22;10746;50.178;8.186;2022-12-18T03:25:03;-5.90;99.90
21176;DHT22;10746;50.178;8.186;2022-12-18T03:27:33;-5.90;99.90
21176;DHT22;10746;50.178;8.186;2022-12-18T03:30:04;-5.90;99.90
21176;DHT22;10746;50.178;8.186;2022-12-18T03:32:38;-5.90;99.90
21176;DHT22;10746;50.178;8.186;2022-12-18T03:35:07;-5.80;99.90
21176;DHT22;10746;50.178;8.186;2022-12-18T03:37:35;-5.80;99.90
21176;DHT22;10746;50.178;8.186;2022-12-18T03:40:03;-5.80;99.90
21176;DHT22;10746;50.178;8.186;2022-12-18T03:42:36;-5.80;99.90
21176;DHT22;10746;50.178;8.186;2022-12-18T03:45:10;-5.80;99.90
21176;DHT22;10746;50.178;8.186;2022-12-18T03:47:41;-5.90;99.90
21176;DHT22;10746;50.178;8.186;2022-12-18T03:50:16;-5.90;99.90
21176;DHT22;10746;50.178;8.186;2022-12-18T03:52:49;-5.90;99.90
21176;DHT22;10746;50.178;8.186;2022-12-18T03:55:18;-5.80;99.90
21176;DHT22;10746;50.178;8.186;2022-12-18T03:57:48;-5.90;99.90
21176;DHT22;10746;50.178;8.186;2022-12-18T04:00:17;-5.80;99.90
21176;DHT22;10746;50.178;8.186;2022-12-18T04:02:47;-5.80;99.90
21176;DHT22;10746;50.178;8.186;2022-12-18T04:05:16;-5.80;99.90
21176;DHT22;10746;50.178;8.186;2022-12-18T04:07:45;-5.90;99.90
21176;DHT22;10746;50.178;8.186;2022-12-18T04:10:14;-5.90;99.90
21176;DHT22;10746;50.178;8.186;2022-12-18T04:12:42;-6.00;99.90
21176;DHT22;10746;50.178;8.186;2022-12-18T04:15:11;-5.90;99.90
21176;DHT22;10746;50.178;8.186;2022-12-18T04:17:39;-5.80;99.90
21176;DHT22;10746;50.178;8.186;2022-12-18T04:20:09;-5.80;99.90
21176;DHT22;10746;50.178;8.186;2022-12-18T04:22:36;-5.70;99.90
21176;DHT22;10746;50.178;8.186;2022-12-18T04:25:04;-5.70;99.90
21176;DHT22;10746;50.178;8.186;2022-12-18T04:27:31;-5.70;99.90
21176;DHT22;10746;50.178;8.186;2022-12-18T04:29:57;-5.80;99.90
21176;DHT22;10746;50.178;8.186;2022-12-18T04:32:25;-5.70;99.90
21176;DHT22;10746;50.178;8.186;2022-12-18T04:34:52;-5.70;99.90
21176;DHT22;10746;50.178;8.186;2022-12-18T04:37:19;-5.70;99.90
21176;DHT22;10746;50.178;8.186;2022-12-18T04:39:46;-5.70;99.90
21176;DHT22;10746;50.178;8.186;2022-12-18T04:42:12;-5.60;99.90
21176;DHT22;10746;50.178;8.186;2022-12-18T04:44:39;-5.70;99.90
21176;DHT22;10746;50.178;8.186;2022-12-18T04:47:06;-5.60;99.90
21176;DHT22;10746;50.178;8.186;2022-12-18T04:49:34;-5.60;99.90
21176;DHT22;10746;50.178;8.186;2022-12-18T04:52:01;-5.50;99.90
21176;DHT22;10746;50.178;8.186;2022-12-18T04:54:27;-5.50;99.90
21176;DHT22;10746;50.178;8.186;2022-12-18T04:56:54;-5.40;99.90
21176;DHT22;10746;50.178;8.186;2022-12-18T04:59:21;-5.50;99.90
21176;DHT22;10746;50.178;8.186;2022-12-18T05:01:48;-5.50;99.90
21176;DHT22;10746;50.178;8.186;2022-12-18T05:04:15;-5.40;99.90
21176;DHT22;10746;50.178;8.186;2022-12-18T05:06:43;-5.40;99.90
21176;DHT22;10746;50.178;8.186;2022-12-18T05:09:09;-5.40;99.90
21176;DHT22;10746;50.178;8.186;2022-12-18T05:11:36;-5.40;99.90
21176;DHT22;10746;50.178;8.186;2022-12-18T05:14:03;-5.40;99.90
21176;DHT22;10746;50.178;8.186;2022-12-18T05:16:30;-5.50;99.90
21176;DHT22;10746;50.178;8.186;2022-12-18T05:18:56;-5.60;99.90
21176;DHT22;10746;50.178;8.186;2022-12-18T05:21:23;-5.60;99.90
21176;DHT22;10746;50.178;8.186;2022-12-18T05:23:51;-5.60;99.90
21176;DHT22;10746;50.178;8.186;2022-12-18T05:26:18;-5.70;99.90
21176;DHT22;10746;50.178;8.186;2022-12-18T05:28:45;-5.60;99.90
21176;DHT22;10746;50.178;8.186;2022-12-18T05:31:12;-5.70;99.90
21176;DHT22;10746;50.178;8.186;2022-12-18T05:33:39;-5.60;99.90
21176;DHT22;10746;50.178;8.186;2022-12-18T05:36:08;-5.60;99.90
21176;DHT22;10746;50.178;8.186;2022-12-18T05:38:38;-5.60;99.90
21176;DHT22;10746;50.178;8.186;2022-12-18T05:41:07;-5.60;99.90
21176;DHT22;10746;50.178;8.186;2022-12-18T05:43:34;-5.50;99.90
21176;DHT22;10746;50.178;8.186;2022-12-18T05:46:04;-5.50;99.90
21176;DHT22;10746;50.178;8.186;2022-12-18T05:48:31;-5.50;99.90
21176;DHT22;10746;50.178;8.186;2022-12-18T05:51:04;-5.60;99.90
21176;DHT22;10746;50.178;8.186;2022-12-18T05:53:32;-5.70;99.90
21176;DHT22;10746;50.178;8.186;2022-12-18T05:56:00;-5.70;99.90
21176;DHT22;10746;50.178;8.186;2022-12-18T05:58:29;-5.80;99.90
21176;DHT22;10746;50.178;8.186;2022-12-18T06:00:57;-5.90;99.90
21176;DHT22;10746;50.178;8.186;2022-12-18T06:03:24;-5.90;99.90
21176;DHT22;10746;50.178;8.186;2022-12-18T06:05:50;-6.00;99.90
21176;DHT22;10746;50.178;8.186;2022-12-18T06:08:17;-5.90;99.90
21176;DHT22;10746;50.178;8.186;2022-12-18T06:10:50;-6.00;99.90
21176;DHT22;10746;50.178;8.186;2022-12-18T06:13:17;-6.20;99.90
21176;DHT22;10746;50.178;8.186;2022-12-18T06:15:45;-6.20;99.90
21176;DHT22;10746;50.178;8.186;2022-12-18T06:18:12;-6.10;99.90
21176;DHT22;10746;50.178;8.186;2022-12-18T06:20:39;-6.10;99.90
21176;DHT22;10746;50.178;8.186;2022-12-18T06:23:07;-5.90;99.90
21176;DHT22;10746;50.178;8.186;2022-12-18T06:25:37;-6.00;99.90
21176;DHT22;10746;50.178;8.186;2022-12-18T06:28:04;-5.90;99.90
21176;DHT22;10746;50.178;8.186;2022-12-18T06:30:31;-6.00;99.90
21176;DHT22;10746;50.178;8.186;2022-12-18T06:32:59;-6.00;99.90
21176;DHT22;10746;50.178;8.186;2022-12-18T06:35:25;-6.10;99.90
21176;DHT22;10746;50.178;8.186;2022-12-18T06:37:52;-6.20;99.90
21176;DHT22;10746;50.178;8.186;2022-12-18T06:40:19;-6.10;99.90
21176;DHT22;10746;50.178;8.186;2022-12-18T06:42:46;-6.10;99.90
21176;DHT22;10746;50.178;8.186;2022-12-18T06:45:12;-6.20;99.90
21176;DHT22;10746;50.178;8.186;2022-12-18T06:47:39;-6.30;99.90
21176;DHT22;10746;50.178;8.186;2022-12-18T06:50:08;-6.20;99.90
21176;DHT22;10746;50.178;8.186;2022-12-18T06:52:34;-6.20;99.90
21176;DHT22;10746;50.178;8.186;2022-12-18T06:55:02;-6.10;99.90
21176;DHT22;10746;50.178;8.186;2022-12-18T06:57:29;-6.00;99.90
21176;DHT22;10746;50.178;8.186;2022-12-18T06:59:56;-6.30;99.90
21176;DHT22;10746;50.178;8.186;2022-12-18T07:02:23;-6.60;99.90
21176;DHT22;10746;50.178;8.186;2022-12-18T07:04:49;-6.60;99.90
21176;DHT22;10746;50.178;8.186;2022-12-18T07:07:17;-6.70;99.90
21176;DHT22;10746;50.178;8.186;2022-12-18T07:09:44;-6.80;99.90
21176;DHT22;10746;50.178;8.186;2022-12-18T07:12:11;-6.70;99.90
21176;DHT22;10746;50.178;8.186;2022-12-18T07:14:38;-6.70;99.90
21176;DHT22;10746;50.178;8.186;2022-12-18T07:17:04;-6.60;99.90
21176;DHT22;10746;50.178;8.186;2022-12-18T07:19:31;-6.50;99.90
21176;DHT22;10746;50.178;8.186;2022-12-18T07:21:58;-6.50;99.90
21176;DHT22;10746;50.178;8.186;2022-12-18T07:24:26;-6.50;99.90
21176;DHT22;10746;50.178;8.186;2022-12-18T07:26:53;-6.40;99.90
21176;DHT22;10746;50.178;8.186;2022-12-18T07:29:20;-6.30;99.90
21176;DHT22;10746;50.178;8.186;2022-12-18T07:31:47;-6.10;99.90
21176;DHT22;10746;50.178;8.186;2022-12-18T07:34:15;-6.00;99.90
21176;DHT22;10746;50.178;8.186;2022-12-18T07:36:41;-5.90;99.90
21176;DHT22;10746;50.178;8.186;2022-12-18T07:39:10;-5.80;99.90
21176;DHT22;10746;50.178;8.186;2022-12-18T07:41:38;-5.70;99.90
21176;DHT22;10746;50.178;8.186;2022-12-18T07:44:09;-5.70;99.90
21176;DHT22;10746;50.178;8.186;2022-12-18T07:46:36;-5.60;99.90
21176;DHT22;10746;50.178;8.186;2022-12-18T07:49:02;-5.60;99.90
21176;DHT22;10746;50.178;8.186;2022-12-18T07:51:29;-5.50;99.90
21176;DHT22;10746;50.178;8.186;2022-12-18T07:53:56;-5.60;99.90
21176;DHT22;10746;50.178;8.186;2022-12-18T07:56:23;-5.70;99.90
21176;DHT22;10746;50.178;8.186;2022-12-18T07:58:51;-5.80;99.90
21176;DHT22;10746;50.178;8.186;2022-12-18T08:01:18;-5.90;99.90
21176;DHT22;10746;50.178;8.186;2022-12-18T08:03:44;-6.00;99.90
21176;DHT22;10746;50.178;8.186;2022-12-18T08:06:11;-6.20;99.90
21176;DHT22;10746;50.178;8.186;2022-12-18T08:08:38;-6.20;99.90
21176;DHT22;10746;50.178;8.186;2022-12-18T08:11:06;-6.20;99.90
21176;DHT22;10746;50.178;8.186;2022-12-18T08:13:33;-6.10;99.90
21176;DHT22;10746;50.178;8.186;2022-12-18T08:16:03;-5.90;99.90
21176;DHT22;10746;50.178;8.186;2022-12-18T08:18:34;-5.80;99.90
21176;DHT22;10746;50.178;8.186;2022-12-18T08:21:08;-5.60;99.90
21176;DHT22;10746;50.178;8.186;2022-12-18T08:23:35;-5.40;99.90
21176;DHT22;10746;50.178;8.186;2022-12-18T08:26:02;-5.20;99.90
21176;DHT22;10746;50.178;8.186;2022-12-18T08:28:29;-4.90;99.90
21176;DHT22;10746;50.178;8.186;2022-12-18T08:30:55;-4.80;99.90
21176;DHT22;10746;50.178;8.186;2022-12-18T08:33:23;-4.70;99.90
21176;DHT22;10746;50.178;8.186;2022-12-18T08:35:50;-4.50;99.90
21176;DHT22;10746;50.178;8.186;2022-12-18T08:38:17;-4.20;99.90
21176;DHT22;10746;50.178;8.186;2022-12-18T08:40:44;-3.90;99.90
21176;DHT22;10746;50.178;8.186;2022-12-18T08:43:11;-3.70;99.90
21176;DHT22;10746;50.178;8.186;2022-12-18T08:45:55;-3.50;99.90
21176;DHT22;10746;50.178;8.186;2022-12-18T08:48:23;-3.50;99.90
21176;DHT22;10746;50.178;8.186;2022-12-18T08:50:54;-3.30;99.90
21176;DHT22;10746;50.178;8.186;2022-12-18T08:53:24;-3.40;99.90
21176;DHT22;10746;50.178;8.186;2022-12-18T08:55:51;-3.30;99.90
21176;DHT22;10746;50.178;8.186;2022-12-18T08:58:18;-3.20;99.90
21176;DHT22;10746;50.178;8.186;2022-12-18T09:00:45;-3.10;99.90
21176;DHT22;10746;50.178;8.186;2022-12-18T09:03:12;-3.20;99.90
21176;DHT22;10746;50.178;8.186;2022-12-18T09:05:41;-3.20;99.90
21176;DHT22;10746;50.178;8.186;2022-12-18T09:08:08;-3.30;99.90
21176;DHT22;10746;50.178;8.186;2022-12-18T09:10:40;-3.20;99.90
21176;DHT22;10746;50.178;8.186;2022-12-18T09:13:07;-3.20;99.90
21176;DHT22;10746;50.178;8.186;2022-12-18T09:15:34;-3.20;99.90
21176;DHT22;10746;50.178;8.186;2022-12-18T09:18:00;-3.30;99.90
21176;DHT22;10746;50.178;8.186;2022-12-18T09:20:27;-3.40;99.90
21176;DHT22;10746;50.178;8.186;2022-12-18T09:22:56;-3.40;99.90
21176;DHT22;10746;50.178;8.186;2022-12-18T09:25:23;-3.50;99.90
21176;DHT22;10746;50.178;8.186;2022-12-18T09:27:50;-3.20;99.90
21176;DHT22;10746;50.178;8.186;2022-12-18T09:30:16;-3.20;99.90
21176;DHT22;10746;50.178;8.186;2022-12-18T09:32:43;-3.30;99.90
21176;DHT22;10746;50.178;8.186;2022-12-18T09:35:10;-3.00;99.90
21176;DHT22;10746;50.178;8.186;2022-12-18T09:37:37;-2.90;99.90
21176;DHT22;10746;50.178;8.186;2022-12-18T09:40:06;-2.70;99.90
21176;DHT22;10746;50.178;8.186;2022-12-18T09:42:33;-2.70;99.90
21176;DHT22;10746;50.178;8.186;2022-12-18T09:45:01;-2.70;99.90
21176;DHT22;10746;50.178;8.186;2022-12-18T09:47:33;-2.80;99.90
21176;DHT22;10746;50.178;8.186;2022-12-18T09:50:02;-3.00;99.90
21176;DHT22;10746;50.178;8.186;2022-12-18T09:52:33;-3.10;99.90
21176;DHT22;10746;50.178;8.186;2022-12-18T09:55:09;-3.30;99.90
21176;DHT22;10746;50.178;8.186;2022-12-18T09:57:47;-3.60;99.90
21176;DHT22;10746;50.178;8.186;2022-12-18T10:00:17;-4.10;99.90
21176;DHT22;10746;50.178;8.186;2022-12-18T10:02:45;-4.30;99.90
21176;DHT22;10746;50.178;8.186;2022-12-18T10:05:13;-4.30;99.90
21176;DHT22;10746;50.178;8.186;2022-12-18T10:07:50;-4.40;99.90
21176;DHT22;10746;50.178;8.186;2022-12-18T10:10:28;-4.30;99.90
21176;DHT22;10746;50.178;8.186;2022-12-18T10:13:02;-4.30;99.90
21176;DHT22;10746;50.178;8.186;2022-12-18T10:15:36;-4.20;99.90
21176;DHT22;10746;50.178;8.186;2022-12-18T10:18:15;-4.20;99.90
21176;DHT22;10746;50.178;8.186;2022-12-18T10:20:47;-4.20;99.90
21176;DHT22;10746;50.178;8.186;2022-12-18T10:23:19;-4.20;99.90
21176;DHT22;10746;50.178;8.186;2022-12-18T10:25:55;-4.00;99.90
21176;DHT22;10746;50.178;8.186;2022-12-18T10:28:25;-3.80;99.90
21176;DHT22;10746;50.178;8.186;2022-12-18T10:30:52;-3.70;99.90
21176;DHT22;10746;50.178;8.186;2022-12-18T10:33:21;-3.70;99.90
21176;DHT22;10746;50.178;8.186;2022-12-18T10:35:50;-3.80;99.90
21176;DHT22;10746;50.178;8.186;2022-12-18T10:38:23;-3.70;99.90
21176;DHT22;10746;50.178;8.186;2022-12-18T10:40:54;-3.70;99.90
21176;DHT22;10746;50.178;8.186;2022-12-18T10:43:23;-3.90;99.90
21176;DHT22;10746;50.178;8.186;2022-12-18T10:46:11;-4.00;99.90
21176;DHT22;10746;50.178;8.186;2022-12-18T10:48:47;-4.20;99.90
21176;DHT22;10746;50.178;8.186;2022-12-18T10:51:21;-3.80;99.90
21176;DHT22;10746;50.178;8.186;2022-12-18T10:53:54;-3.80;99.90
21176;DHT22;10746;50.178;8.186;2022-12-18T10:56:24;-3.40;99.90
21176;DHT22;10746;50.178;8.186;2022-12-18T10:58:58;-3.10;99.90
21176;DHT22;10746;50.178;8.186;2022-12-18T11:01:25;-2.90;99.90
21176;DHT22;10746;50.178;8.186;2022-12-18T11:04:00;-2.50;99.90
21176;DHT22;10746;50.178;8.186;2022-12-18T11:06:28;-2.10;99.90
21176;DHT22;10746;50.178;8.186;2022-12-18T11:08:59;-2.40;99.90
21176;DHT22;10746;50.178;8.186;2022-12-18T11:11:28;-2.20;99.90
21176;DHT22;10746;50.178;8.186;2022-12-18T11:14:01;-2.20;99.90
21176;DHT22;10746;50.178;8.186;2022-12-18T11:16:30;-2.60;99.90
21176;DHT22;10746;50.178;8.186;2022-12-18T11:19:19;-2.60;99.90
21176;DHT22;10746;50.178;8.186;2022-12-18T11:21:48;-2.80;99.90
21176;DHT22;10746;50.178;8.186;2022-12-18T11:24:26;-2.80;99.90
21176;DHT22;10746;50.178;8.186;2022-12-18T11:26:55;-2.80;99.90
21176;DHT22;10746;50.178;8.186;2022-12-18T11:29:27;-3.10;99.90
21176;DHT22;10746;50.178;8.186;2022-12-18T11:32:29;-3.30;99.90
21176;DHT22;10746;50.178;8.186;2022-12-18T11:35:07;-3.60;99.90
21176;DHT22;10746;50.178;8.186;2022-12-18T11:37:36;-3.60;99.90
21176;DHT22;10746;50.178;8.186;2022-12-18T11:40:06;-3.70;99.90
21176;DHT22;10746;50.178;8.186;2022-12-18T11:42:38;-3.60;99.90
21176;DHT22;10746;50.178;8.186;2022-12-18T11:45:23;-3.90;99.90
21176;DHT22;10746;50.178;8.186;2022-12-18T11:47:56;-4.30;99.90
21176;DHT22;10746;50.178;8.186;2022-12-18T11:50:25;-4.30;99.90
21176;DHT22;10746;50.178;8.186;2022-12-18T11:52:52;-4.30;99.90
21176;DHT22;10746;50.178;8.186;2022-12-18T11:55:27;-4.30;99.90
21176;DHT22;10746;50.178;8.186;2022-12-18T11:58:02;-4.50;99.90
21176;DHT22;10746;50.178;8.186;2022-12-18T12:00:35;-4.50;99.90
21176;DHT22;10746;50.178;8.186;2022-12-18T12:03:27;-4.60;99.90
21176;DHT22;10746;50.178;8.186;2022-12-18T12:06:03;-5.00;99.90
21176;DHT22;10746;50.178;8.186;2022-12-18T12:08:48;-5.10;99.90
21176;DHT22;10746;50.178;8.186;2022-12-18T12:11:26;-5.20;99.90
21176;DHT22;10746;50.178;8.186;2022-12-18T12:16:52;-5.40;99.90
21176;DHT22;10746;50.178;8.186;2022-12-18T12:19:34;-5.40;99.90
21176;DHT22;10746;50.178;8.186;2022-12-18T12:22:08;-5.50;99.90
21176;DHT22;10746;50.178;8.186;2022-12-18T12:24:45;-5.50;99.90
21176;DHT22;10746;50.178;8.186;2022-12-18T12:27:20;-5.50;99.90
21176;DHT22;10746;50.178;8.186;2022-12-18T12:30:00;-5.60;99.90
21176;DHT22;10746;50.178;8.186;2022-12-18T12:32:44;-5.70;99.90
21176;DHT22;10746;50.178;8.186;2022-12-18T12:35:27;-5.90;99.90
21176;DHT22;10746;50.178;8.186;2022-12-18T12:38:05;-5.90;99.90
21176;DHT22;10746;50.178;8.186;2022-12-18T12:40:36;-5.90;99.90
21176;DHT22;10746;50.178;8.186;2022-12-18T12:43:19;-5.90;99.90
21176;DHT22;10746;50.178;8.186;2022-12-18T12:45:51;-6.00;99.90
21176;DHT22;10746;50.178;8.186;2022-12-18T12:48:27;-6.00;99.90
21176;DHT22;10746;50.178;8.186;2022-12-18T12:50:59;-6.00;99.90
21176;DHT22;10746;50.178;8.186;2022-12-18T12:53:30;-6.00;99.90
21176;DHT22;10746;50.178;8.186;2022-12-18T12:55:57;-6.10;99.90
21176;DHT22;10746;50.178;8.186;2022-12-18T12:58:31;-6.10;99.90
21176;DHT22;10746;50.178;8.186;2022-12-18T13:01:09;-6.10;99.90
21176;DHT22;10746;50.178;8.186;2022-12-18T13:03:45;-6.20;99.90
21176;DHT22;10746;50.178;8.186;2022-12-18T13:06:17;-6.30;99.90
21176;DHT22;10746;50.178;8.186;2022-12-18T13:08:55;-6.30;99.90
21176;DHT22;10746;50.178;8.186;2022-12-18T13:11:35;-6.30;99.90
21176;DHT22;10746;50.178;8.186;2022-12-18T13:14:21;-6.30;99.90
21176;DHT22;10746;50.178;8.186;2022-12-18T13:16:50;-6.30;99.90
21176;DHT22;10746;50.178;8.186;2022-12-18T13:19:22;-6.30;99.90
21176;DHT22;10746;50.178;8.186;2022-12-18T13:21:53;-6.30;99.90
21176;DHT22;10746;50.178;8.186;2022-12-18T13:24:25;-6.40;99.90
21176;DHT22;10746;50.178;8.186;2022-12-18T13:26:52;-6.40;99.90
21176;DHT22;10746;50.178;8.186;2022-12-18T13:29:41;-6.30;99.90
21176;DHT22;10746;50.178;8.186;2022-12-18T13:32:23;-6.40;99.90
21176;DHT22;10746;50.178;8.186;2022-12-18T13:37:54;-6.30;99.90
21176;DHT22;10746;50.178;8.186;2022-12-18T13:43:33;-6.40;99.90
21176;DHT22;10746;50.178;8.186;2022-12-18T13:46:17;-6.30;99.90
21176;DHT22;10746;50.178;8.186;2022-12-18T13:49:00;-6.30;99.90
21176;DHT22;10746;50.178;8.186;2022-12-18T13:51:28;-6.30;99.90
21176;DHT22;10746;50.178;8.186;2022-12-18T13:53:58;-6.40;99.90
21176;DHT22;10746;50.178;8.186;2022-12-18T13:56:27;-6.40;99.90
21176;DHT22;10746;50.178;8.186;2022-12-18T13:59:15;-6.40;99.90
21176;DHT22;10746;50.178;8.186;2022-12-18T14:01:44;-6.50;99.90
21176;DHT22;10746;50.178;8.186;2022-12-18T14:04:20;-6.50;99.90
21176;DHT22;10746;50.178;8.186;2022-12-18T14:06:49;-6.50;99.90
21176;DHT22;10746;50.178;8.186;2022-12-18T14:09:24;-6.50;99.90
21176;DHT22;10746;50.178;8.186;2022-12-18T14:11:52;-6.50;99.90
21176;DHT22;10746;50.178;8.186;2022-12-18T14:14:41;-6.50;99.90
21176;DHT22;10746;50.178;8.186;2022-12-18T14:17:10;-6.50;99.90
21176;DHT22;10746;50.178;8.186;2022-12-18T14:19:41;-6.60;99.90
21176;DHT22;10746;50.178;8.186;2022-12-18T14:22:15;-6.50;99.90
21176;DHT22;10746;50.178;8.186;2022-12-18T14:24:42;-6.50;99.90
21176;DHT22;10746;50.178;8.186;2022-12-18T14:27:20;-6.50;99.90
21176;DHT22;10746;50.178;8.186;2022-12-18T14:29:48;-6.50;99.90
21176;DHT22;10746;50.178;8.186;2022-12-18T14:32:16;-6.50;99.90
21176;DHT22;10746;50.178;8.186;2022-12-18T14:34:45;-6.50;99.90
21176;DHT22;10746;50.178;8.186;2022-12-18T14:37:14;-6.50;99.90
21176;DHT22;10746;50.178;8.186;2022-12-18T14:39:41;-6.50;99.90
21176;DHT22;10746;50.178;8.186;2022-12-18T14:42:18;-6.50;99.90
21176;DHT22;10746;50.178;8.186;2022-12-18T14:44:44;-6.50;99.90
21176;DHT22;10746;50.178;8.186;2022-12-18T14:47:14;-6.50;99.90
21176;DHT22;10746;50.178;8.186;2022-12-18T14:49:42;-6.50;99.90
21176;DHT22;10746;50.178;8.186;2022-12-18T14:52:20;-6.50;99.90
21176;DHT22;10746;50.178;8.186;2022-12-18T14:54:48;-6.50;99.90
21176;DHT22;10746;50.178;8.186;2022-12-18T14:57:20;-6.50;99.90
21176;DHT22;10746;50.178;8.186;2022-12-18T14:59:47;-6.50;99.90
21176;DHT22;10746;50.178;8.186;2022-12-18T15:02:19;-6.50;99.90
21176;DHT22;10746;50.178;8.186;2022-12-18T15:04:47;-6.50;99.90
21176;DHT22;10746;50.178;8.186;2022-12-18T15:07:19;-6.50;99.90
21176;DHT22;10746;50.178;8.186;2022-12-18T15:10:02;-6.50;99.90
21176;DHT22;10746;50.178;8.186;2022-12-18T15:12:33;-6.50;99.90
21176;DHT22;10746;50.178;8.186;2022-12-18T15:15:01;-6.50;99.90
21176;DHT22;10746;50.178;8.186;2022-12-18T15:17:28;-6.40;99.90
21176;DHT22;10746;50.178;8.186;2022-12-18T15:20:00;-6.40;99.90
21176;DHT22;10746;50.178;8.186;2022-12-18T15:22:30;-6.40;99.90
21176;DHT22;10746;50.178;8.186;2022-12-18T15:25:00;-6.40;99.90
21176;DHT22;10746;50.178;8.186;2022-12-18T15:27:32;-6.30;99.90
21176;DHT22;10746;50.178;8.186;2022-12-18T15:30:03;-6.30;99.90
21176;DHT22;10746;50.178;8.186;2022-12-18T15:32:41;-6.30;99.90
21176;DHT22;10746;50.178;8.186;2022-12-18T15:35:14;-6.30;99.90
21176;DHT22;10746;50.178;8.186;2022-12-18T15:37:43;-6.30;99.90
21176;DHT22;10746;50.178;8.186;2022-12-18T15:40:13;-6.30;99.90
21176;DHT22;10746;50.178;8.186;2022-12-18T15:42:40;-6.20;99.90
21176;DHT22;10746;50.178;8.186;2022-12-18T15:45:24;-6.20;99.90
21176;DHT22;10746;50.178;8.186;2022-12-18T15:47:50;-6.20;99.90
21176;DHT22;10746;50.178;8.186;2022-12-18T15:50:17;-6.10;99.90
21176;DHT22;10746;50.178;8.186;2022-12-18T15:52:47;-6.10;99.90
21176;DHT22;10746;50.178;8.186;2022-12-18T15:55:17;-6.00;99.90
21176;DHT22;10746;50.178;8.186;2022-12-18T15:58:01;-6.00;99.90
21176;DHT22;10746;50.178;8.186;2022-12-18T16:00:28;-6.00;99.90